createdAt,value
2018-09-14T00:02:07.952Z,16.70
2018-09-14T00:04:36.509Z,16.60
2018-09-14T00:07:05.701Z,16.60
2018-09-14T00:09:34.262Z,16.70
2018-09-14T00:12:02.780Z,16.70
2018-09-14T00:14:31.326Z,16.60
2018-09-14T00:16:59.843Z,16.60
2018-09-14T00:19:28.403Z,16.60
2018-09-14T00:21:56.934Z,16.50
2018-09-14T00:24:27.082Z,16.50
2018-09-14T00:26:55.752Z,16.60
2018-09-14T00:29:24.311Z,16.60
2018-09-14T00:31:52.909Z,16.60
2018-09-14T00:34:21.439Z,16.60
2018-09-14T00:36:50.052Z,16.60
2018-09-14T00:39:18.589Z,16.70
2018-09-14T00:41:47.149Z,16.70
2018-09-14T00:44:15.706Z,16.70
2018-09-14T00:46:44.845Z,16.80
2018-09-14T00:49:13.417Z,16.80
2018-09-14T00:51:42.597Z,16.80
2018-09-14T00:54:11.172Z,16.80
2018-09-14T00:56:39.840Z,16.90
2018-09-14T00:59:08.397Z,16.90
2018-09-14T01:01:37.016Z,16.90
2018-09-14T01:04:05.586Z,16.90
2018-09-14T01:06:34.160Z,17.00
2018-09-14T01:09:02.744Z,17.10
2018-09-14T01:11:31.286Z,17.10
2018-09-14T01:13:59.805Z,17.20
2018-09-14T01:16:28.376Z,17.20
2018-09-14T01:18:57.030Z,17.30
2018-09-14T01:21:26.512Z,17.30
2018-09-14T01:23:55.278Z,17.40
2018-09-14T01:26:23.795Z,17.40
2018-09-14T01:28:52.315Z,17.50
2018-09-14T01:31:20.873Z,17.60
2018-09-14T01:33:49.447Z,17.60
2018-09-14T01:36:18.005Z,17.60
2018-09-14T01:38:47.474Z,17.60
2018-09-14T01:41:16.032Z,17.60
2018-09-14T01:43:44.547Z,17.60
2018-09-14T01:46:13.235Z,17.60
2018-09-14T01:48:41.792Z,17.60
2018-09-14T01:51:10.327Z,17.60
2018-09-14T01:53:38.880Z,17.60
2018-09-14T01:56:07.488Z,17.70
2018-09-14T01:58:36.040Z,17.70
2018-09-14T02:01:04.648Z,17.70
2018-09-14T02:03:33.257Z,17.70
2018-09-14T02:06:01.742Z,17.70
2018-09-14T02:08:30.308Z,17.70
2018-09-14T02:10:58.846Z,17.70
2018-09-14T02:13:27.371Z,17.70
2018-09-14T02:15:56.526Z,17.70
2018-09-14T02:18:25.099Z,17.70
2018-09-14T02:20:53.793Z,17.70
2018-09-14T02:23:22.344Z,17.70
2018-09-14T02:25:50.873Z,17.70
2018-09-14T02:28:19.423Z,17.60
2018-09-14T02:30:48.241Z,17.60
2018-09-14T02:33:16.794Z,17.60
2018-09-14T02:35:45.312Z,17.60
2018-09-14T02:38:13.873Z,17.60
2018-09-14T02:40:42.414Z,17.60
2018-09-14T02:43:11.068Z,17.60
2018-09-14T02:45:39.632Z,17.60
2018-09-14T02:48:08.232Z,17.60
2018-09-14T02:50:36.772Z,17.60
2018-09-14T02:53:05.428Z,17.60
2018-09-14T02:55:33.986Z,17.70
2018-09-14T02:58:02.571Z,17.70
2018-09-14T03:00:31.121Z,17.70
2018-09-14T03:02:59.696Z,17.70
2018-09-14T03:05:28.208Z,17.70
2018-09-14T03:07:56.770Z,17.70
2018-09-14T03:10:25.362Z,17.70
2018-09-14T03:12:54.239Z,17.70
2018-09-14T03:15:22.838Z,17.70
2018-09-14T03:17:51.391Z,17.70
2018-09-14T03:20:20.303Z,17.70
2018-09-14T03:22:49.049Z,17.70
2018-09-14T03:25:17.589Z,17.60
2018-09-14T03:27:46.333Z,17.60
2018-09-14T03:30:14.905Z,17.60
2018-09-14T03:32:43.421Z,17.60
2018-09-14T03:35:12.073Z,17.60
2018-09-14T03:37:40.596Z,17.60
2018-09-14T03:40:09.208Z,17.60
2018-09-14T03:42:37.795Z,17.70
2018-09-14T03:45:06.788Z,17.70
2018-09-14T03:47:35.396Z,17.60
2018-09-14T03:50:04.188Z,17.60
2018-09-14T03:52:32.889Z,17.60
2018-09-14T03:55:01.464Z,17.60
2018-09-14T03:57:30.001Z,17.50
2018-09-14T03:59:58.677Z,17.50
2018-09-14T04:02:27.567Z,17.50
2018-09-14T04:04:56.117Z,17.40
2018-09-14T04:07:24.634Z,17.40
2018-09-14T04:09:53.191Z,17.40
2018-09-14T04:12:21.740Z,17.40
2018-09-14T04:14:50.301Z,17.40
2018-09-14T04:17:19.076Z,17.40
2018-09-14T04:19:47.631Z,17.40
2018-09-14T04:22:16.163Z,17.40
2018-09-14T04:24:44.717Z,17.40
2018-09-14T04:27:13.270Z,17.40
2018-09-14T04:29:41.821Z,17.40
2018-09-14T04:32:10.346Z,17.40
2018-09-14T04:34:38.928Z,17.40
2018-09-14T04:37:07.493Z,17.40
2018-09-14T04:39:36.054Z,17.40
2018-09-14T04:42:04.584Z,17.40
2018-09-14T04:44:33.144Z,17.40
2018-09-14T04:47:01.702Z,17.30
2018-09-14T04:49:30.230Z,17.30
2018-09-14T04:51:58.774Z,17.30
2018-09-14T04:54:27.345Z,17.30
2018-09-14T04:56:55.886Z,17.30
2018-09-14T04:59:24.699Z,17.30
2018-09-14T05:01:53.289Z,17.30
2018-09-14T05:04:21.871Z,17.30
2018-09-14T05:06:50.522Z,17.30
2018-09-14T05:09:19.049Z,17.30
2018-09-14T05:11:47.649Z,17.30
2018-09-14T05:14:16.272Z,17.30
2018-09-14T05:16:44.794Z,17.30
2018-09-14T05:19:13.427Z,17.40
2018-09-14T05:21:41.964Z,17.40
2018-09-14T05:24:10.622Z,17.40
2018-09-14T05:26:39.255Z,17.50
2018-09-14T05:29:07.768Z,17.50
2018-09-14T05:31:36.325Z,17.50
2018-09-14T05:34:04.864Z,17.60
2018-09-14T05:36:33.442Z,17.60
2018-09-14T05:39:01.979Z,17.70
2018-09-14T05:41:31.166Z,17.70
2018-09-14T05:43:59.691Z,17.70
2018-09-14T05:46:28.247Z,17.70
2018-09-14T05:48:56.806Z,17.70
2018-09-14T05:51:25.402Z,17.80
2018-09-14T05:54:00.416Z,17.80
2018-09-14T05:56:28.964Z,17.90
2018-09-14T05:58:57.582Z,17.90
2018-09-14T06:01:26.140Z,17.90
2018-09-14T06:03:54.692Z,18.00
2018-09-14T06:06:23.465Z,18.10
2018-09-14T06:08:52.021Z,18.20
2018-09-14T06:11:21.228Z,18.20
2018-09-14T06:13:50.225Z,18.30
2018-09-14T06:16:18.796Z,18.30
2018-09-14T06:18:47.586Z,18.40
2018-09-14T06:21:16.111Z,18.50
2018-09-14T06:23:44.638Z,18.50
2018-09-14T06:26:13.198Z,18.60
2018-09-14T06:28:41.989Z,18.60
2018-09-14T06:31:10.588Z,18.60
2018-09-14T06:33:39.301Z,18.70
2018-09-14T06:36:07.853Z,18.70
2018-09-14T06:38:36.907Z,18.70
2018-09-14T06:41:05.480Z,18.70
2018-09-14T06:43:34.032Z,18.80
2018-09-14T06:46:02.680Z,18.70
2018-09-14T06:48:31.307Z,18.70
2018-09-14T06:50:59.876Z,18.70
2018-09-14T06:53:28.506Z,18.70
2018-09-14T06:55:57.256Z,18.70
2018-09-14T06:58:26.028Z,18.80
2018-09-14T07:00:54.864Z,18.80
2018-09-14T07:03:23.387Z,18.80
2018-09-14T07:05:51.988Z,18.80
2018-09-14T07:08:20.507Z,18.90
2018-09-14T07:10:49.479Z,18.90
2018-09-14T07:13:18.454Z,18.90
2018-09-14T07:15:47.108Z,18.90
2018-09-14T07:18:15.887Z,18.90
2018-09-14T07:20:44.527Z,18.90
2018-09-14T07:23:13.224Z,19.00
2018-09-14T07:25:42.001Z,19.00
2018-09-14T07:28:10.556Z,19.10
2018-09-14T07:30:40.032Z,19.20
2018-09-14T07:33:08.651Z,19.30
2018-09-14T07:35:37.280Z,19.40
2018-09-14T07:38:06.001Z,19.60
2018-09-14T07:40:35.128Z,19.90
2018-09-14T07:43:04.026Z,20.20
2018-09-14T07:45:32.859Z,20.40
2018-09-14T07:48:01.432Z,20.50
2018-09-14T07:50:29.966Z,20.70
2018-09-14T07:52:58.549Z,20.90
2018-09-14T07:55:27.147Z,21.00
2018-09-14T07:57:55.691Z,21.20
2018-09-14T08:00:24.211Z,21.40
2018-09-14T08:02:52.785Z,21.40
2018-09-14T08:05:21.428Z,21.50
2018-09-14T08:07:49.979Z,21.60
2018-09-14T08:10:18.948Z,21.60
2018-09-14T08:12:47.641Z,21.60
2018-09-14T08:15:16.192Z,21.70
2018-09-14T08:17:45.260Z,21.90
2018-09-14T08:20:13.820Z,22.10
2018-09-14T08:22:42.369Z,22.20
2018-09-14T08:25:11.224Z,22.30
2018-09-14T08:27:39.808Z,22.40
2018-09-14T08:30:09.495Z,22.50
2018-09-14T08:32:38.106Z,22.60
2018-09-14T08:35:06.800Z,22.70
2018-09-14T08:37:35.367Z,22.70
2018-09-14T08:40:04.049Z,22.70
2018-09-14T08:42:32.763Z,22.70
2018-09-14T08:45:01.553Z,22.60
2018-09-14T08:47:30.123Z,22.50
2018-09-14T08:49:58.804Z,22.40
2018-09-14T08:52:27.319Z,22.30
2018-09-14T08:54:55.889Z,22.10
2018-09-14T08:57:24.453Z,21.90
2018-09-14T08:59:53.013Z,21.80
2018-09-14T09:02:21.585Z,21.90
2018-09-14T09:04:50.151Z,22.00
2018-09-14T09:07:18.754Z,22.10
2018-09-14T09:09:47.764Z,22.20
2018-09-14T09:12:16.417Z,22.30
2018-09-14T09:14:45.250Z,22.40
2018-09-14T09:17:13.804Z,22.50
2018-09-14T09:19:42.407Z,22.60
2018-09-14T09:22:11.108Z,22.70
2018-09-14T09:24:39.664Z,22.70
2018-09-14T09:27:09.394Z,22.60
2018-09-14T09:29:37.923Z,22.50
2018-09-14T09:32:07.069Z,22.50
2018-09-14T09:34:35.884Z,22.50
2018-09-14T09:37:04.553Z,22.50
2018-09-14T09:39:33.163Z,22.60
2018-09-14T09:42:01.723Z,22.60
2018-09-14T09:44:30.255Z,22.60
2018-09-14T09:46:58.864Z,22.60
2018-09-14T09:49:27.389Z,22.70
2018-09-14T09:51:55.997Z,22.80
2018-09-14T09:54:24.540Z,22.90
2018-09-14T09:56:53.496Z,22.90
2018-09-14T09:59:22.153Z,22.90
2018-09-14T10:01:55.977Z,22.90
2018-09-14T10:04:29.873Z,22.90
2018-09-14T10:06:58.427Z,23.00
2018-09-14T10:09:27.105Z,23.10
2018-09-14T10:11:55.664Z,23.10
2018-09-14T10:14:24.347Z,23.20
2018-09-14T10:16:52.959Z,23.40
2018-09-14T10:19:21.986Z,23.40
2018-09-14T10:21:50.821Z,23.50
2018-09-14T10:24:19.289Z,23.60
2018-09-14T10:26:47.898Z,23.50
2018-09-14T10:29:16.396Z,23.50
2018-09-14T10:31:44.956Z,23.50
2018-09-14T10:34:14.321Z,23.70
2018-09-14T10:36:42.948Z,23.80
2018-09-14T10:39:12.614Z,24.00
2018-09-14T10:41:41.675Z,24.10
2018-09-14T10:44:10.411Z,24.00
2018-09-14T10:46:42.164Z,24.00
2018-09-14T10:49:10.855Z,24.00
2018-09-14T10:51:39.427Z,24.00
2018-09-14T10:54:08.055Z,24.10
2018-09-14T10:56:36.616Z,24.10
2018-09-14T10:59:05.205Z,24.10
2018-09-14T11:01:33.756Z,24.00
2018-09-14T11:04:02.894Z,24.00
2018-09-14T11:06:31.445Z,24.10
2018-09-14T11:09:00.367Z,24.00
2018-09-14T11:11:28.887Z,24.10
2018-09-14T11:13:57.410Z,24.20
2018-09-14T11:16:25.966Z,24.40
2018-09-14T11:18:54.533Z,24.60
2018-09-14T11:21:23.268Z,24.80
2018-09-14T11:23:52.129Z,24.80
2018-09-14T11:26:20.657Z,24.90
2018-09-14T11:28:49.672Z,24.80
2018-09-14T11:31:18.285Z,24.80
2018-09-14T11:33:47.358Z,24.60
2018-09-14T11:36:16.468Z,24.50
2018-09-14T11:38:45.032Z,24.50
2018-09-14T11:41:13.597Z,24.50
2018-09-14T11:43:42.198Z,24.40
2018-09-14T11:46:11.608Z,24.40
2018-09-14T11:48:40.361Z,24.40
2018-09-14T11:51:08.908Z,24.40
2018-09-14T11:53:37.505Z,24.60
2018-09-14T11:56:06.031Z,24.90
2018-09-14T11:58:34.601Z,25.30
2018-09-14T12:01:03.141Z,25.80
2018-09-14T12:03:31.701Z,26.30
2018-09-14T12:06:00.477Z,26.70
2018-09-14T12:08:29.051Z,26.90
2018-09-14T12:10:57.614Z,27.00
2018-09-14T12:13:26.165Z,27.20
2018-09-14T12:15:54.744Z,27.30
2018-09-14T12:18:23.299Z,27.50
2018-09-14T12:20:51.872Z,27.80
2018-09-14T12:23:20.751Z,27.80
2018-09-14T12:25:49.309Z,27.70
2018-09-14T12:28:17.835Z,28.00
2018-09-14T12:30:46.420Z,28.70
2018-09-14T12:33:14.956Z,29.90
2018-09-14T12:35:43.545Z,31.20
2018-09-14T12:38:12.068Z,32.50
2018-09-14T12:40:40.620Z,33.20
2018-09-14T12:43:09.148Z,33.40
2018-09-14T12:45:37.715Z,33.10
2018-09-14T12:48:06.519Z,32.50
2018-09-14T12:50:35.104Z,31.70
2018-09-14T12:53:03.664Z,31.10
2018-09-14T12:55:32.803Z,30.60
2018-09-14T12:58:01.325Z,30.60
2018-09-14T13:00:29.866Z,30.80
2018-09-14T13:02:58.395Z,31.10
2018-09-14T13:05:26.992Z,31.20
2018-09-14T13:07:55.514Z,31.10
2018-09-14T13:10:24.063Z,30.80
2018-09-14T13:12:52.601Z,30.60
2018-09-14T13:15:21.134Z,30.50
2018-09-14T13:17:49.648Z,30.40
2018-09-14T13:20:18.247Z,30.20
2018-09-14T13:22:46.771Z,29.90
2018-09-14T13:25:15.330Z,29.70
2018-09-14T13:27:43.885Z,29.40
2018-09-14T13:30:12.491Z,29.10
2018-09-14T13:32:43.563Z,28.90
2018-09-14T13:35:12.116Z,28.70
2018-09-14T13:37:40.627Z,28.40
2018-09-14T13:40:09.243Z,28.20
2018-09-14T13:42:37.746Z,28.00
2018-09-14T13:45:06.364Z,27.80
2018-09-14T13:47:34.952Z,27.70
2018-09-14T13:50:03.519Z,27.70
2018-09-14T13:52:32.093Z,28.00
2018-09-14T13:55:00.680Z,28.30
2018-09-14T13:57:29.192Z,28.70
2018-09-14T13:59:57.760Z,29.00
2018-09-14T14:02:26.943Z,29.40
2018-09-14T14:04:55.520Z,29.80
2018-09-14T14:07:24.206Z,30.10
2018-09-14T14:09:52.862Z,30.10
2018-09-14T14:12:21.297Z,29.90
2018-09-14T14:14:49.900Z,29.60
2018-09-14T14:17:18.627Z,29.20
2018-09-14T14:19:47.107Z,28.90
2018-09-14T14:22:15.653Z,28.70
2018-09-14T14:24:44.203Z,28.60
2018-09-14T14:27:12.805Z,28.60
2018-09-14T14:29:41.337Z,28.70
2018-09-14T14:32:09.885Z,28.60
2018-09-14T14:34:38.423Z,28.40
2018-09-14T14:37:06.975Z,28.30
2018-09-14T14:39:35.516Z,28.20
2018-09-14T14:42:04.177Z,28.20
2018-09-14T14:44:32.711Z,28.20
2018-09-14T14:47:01.314Z,28.20
2018-09-14T14:49:29.928Z,28.40
2018-09-14T14:51:58.502Z,28.50
2018-09-14T14:54:27.403Z,28.60
2018-09-14T14:56:55.975Z,28.70
2018-09-14T14:59:24.572Z,28.80
2018-09-14T15:01:53.136Z,28.90
2018-09-14T15:04:21.645Z,28.90
2018-09-14T15:06:50.561Z,29.10
2018-09-14T15:09:19.137Z,29.30
2018-09-14T15:11:47.675Z,29.50
2018-09-14T15:14:16.205Z,29.70
2018-09-14T15:16:44.755Z,30.00
2018-09-14T15:19:13.355Z,30.30
2018-09-14T15:21:41.883Z,30.80
2018-09-14T15:24:10.508Z,31.10
2018-09-14T15:26:39.127Z,31.20
2018-09-14T15:29:07.856Z,31.00
2018-09-14T15:31:36.445Z,30.70
2018-09-14T15:34:05.516Z,30.30
2018-09-14T15:36:34.201Z,30.10
2018-09-14T15:39:02.945Z,29.90
2018-09-14T15:41:31.536Z,29.70
2018-09-14T15:44:00.120Z,29.50
2018-09-14T15:46:28.698Z,29.30
2018-09-14T15:48:57.270Z,29.50
2018-09-14T15:51:25.811Z,30.10
2018-09-14T15:53:54.407Z,30.90
2018-09-14T15:56:22.935Z,31.80
2018-09-14T15:58:51.472Z,32.80
2018-09-14T16:01:20.125Z,33.70
2018-09-14T16:03:48.699Z,34.50
2018-09-14T16:06:18.162Z,35.30
2018-09-14T16:08:46.770Z,35.80
2018-09-14T16:11:15.356Z,35.80
2018-09-14T16:13:43.863Z,35.60
2018-09-14T16:16:12.376Z,35.30
2018-09-14T16:18:40.925Z,34.60
2018-09-14T16:21:09.480Z,33.80
2018-09-14T16:23:38.080Z,32.90
2018-09-14T16:26:06.646Z,32.20
2018-09-14T16:28:35.208Z,31.50
2018-09-14T16:31:04.110Z,30.80
2018-09-14T16:33:32.661Z,30.10
2018-09-14T16:36:01.184Z,29.50
2018-09-14T16:38:29.751Z,28.90
2018-09-14T16:40:58.397Z,28.40
2018-09-14T16:43:26.977Z,28.00
2018-09-14T16:45:55.537Z,27.70
2018-09-14T16:48:24.110Z,27.60
2018-09-14T16:50:52.645Z,27.40
2018-09-14T16:53:21.216Z,27.10
2018-09-14T16:55:49.761Z,26.80
2018-09-14T16:58:18.571Z,26.60
2018-09-14T17:00:47.124Z,26.30
2018-09-14T17:03:15.680Z,26.00
2018-09-14T17:05:44.300Z,25.70
2018-09-14T17:08:12.849Z,25.50
2018-09-14T17:10:41.372Z,25.30
2018-09-14T17:13:09.943Z,25.00
2018-09-14T17:15:38.468Z,24.80
2018-09-14T17:18:07.037Z,24.70
2018-09-14T17:20:35.564Z,24.40
2018-09-14T17:23:05.780Z,24.30
2018-09-14T17:25:34.318Z,24.10
2018-09-14T17:28:02.883Z,24.00
2018-09-14T17:30:31.416Z,23.80
2018-09-14T17:33:00.028Z,23.60
2018-09-14T17:35:28.649Z,23.50
2018-09-14T17:37:57.180Z,23.40
2018-09-14T17:40:26.112Z,23.30
2018-09-14T17:42:54.722Z,23.20
2018-09-14T17:45:23.249Z,23.10
2018-09-14T17:47:51.798Z,23.00
2018-09-14T17:50:20.386Z,22.90
2018-09-14T17:52:48.932Z,22.90
2018-09-14T17:55:17.538Z,22.80
2018-09-14T17:57:46.190Z,22.70
2018-09-14T18:00:14.754Z,22.70
2018-09-14T18:02:43.312Z,22.60
2018-09-14T18:05:11.919Z,22.50
2018-09-14T18:07:40.436Z,22.50
2018-09-14T18:10:08.995Z,22.50
2018-09-14T18:12:37.563Z,22.40
2018-09-14T18:15:06.161Z,22.30
2018-09-14T18:17:34.693Z,22.30
2018-09-14T18:20:04.110Z,22.30
2018-09-14T18:22:33.443Z,22.20
2018-09-14T18:25:02.029Z,22.10
2018-09-14T18:27:30.960Z,22.10
2018-09-14T18:29:59.678Z,21.90
2018-09-14T18:32:28.220Z,21.90
2018-09-14T18:34:57.114Z,21.80
2018-09-14T18:37:25.920Z,21.70
2018-09-14T18:39:54.468Z,21.70
2018-09-14T18:42:23.252Z,21.70
2018-09-14T18:44:51.972Z,21.60
2018-09-14T18:47:20.947Z,21.60
2018-09-14T18:49:49.630Z,21.60
2018-09-14T18:52:18.219Z,21.50
2018-09-14T18:54:47.040Z,21.50
2018-09-14T18:57:15.583Z,21.40
2018-09-14T18:59:44.163Z,21.40
2018-09-14T19:02:14.622Z,21.40
2018-09-14T19:04:49.914Z,21.30
2018-09-14T19:07:19.421Z,21.30
2018-09-14T19:09:48.493Z,21.30
2018-09-14T19:12:17.419Z,21.30
2018-09-14T19:14:46.150Z,21.30
2018-09-14T19:17:15.984Z,21.20
2018-09-14T19:19:44.873Z,21.20
2018-09-14T19:22:13.911Z,21.20
2018-09-14T19:24:43.169Z,21.20
2018-09-14T19:27:11.738Z,21.20
2018-09-14T19:29:40.587Z,21.20
2018-09-14T19:32:09.195Z,21.20
2018-09-14T19:34:38.233Z,21.10
2018-09-14T19:37:07.039Z,21.10
2018-09-14T19:39:35.551Z,21.00
2018-09-14T19:42:04.090Z,21.00
2018-09-14T19:44:32.861Z,21.00
2018-09-14T19:47:01.561Z,20.90
2018-09-14T19:49:30.079Z,20.90
2018-09-14T19:51:58.671Z,20.80
2018-09-14T19:54:27.234Z,20.70
2018-09-14T19:56:55.777Z,20.70
2018-09-14T19:59:24.369Z,20.60
2018-09-14T20:01:52.925Z,20.50
2018-09-14T20:04:21.425Z,20.40
2018-09-14T20:06:50.120Z,20.30
2018-09-14T20:09:18.672Z,20.20
2018-09-14T20:11:47.241Z,20.10
2018-09-14T20:14:15.787Z,20.00
2018-09-14T20:16:44.432Z,19.90
2018-09-14T20:19:13.013Z,19.80
2018-09-14T20:21:41.705Z,19.70
2018-09-14T20:24:10.237Z,19.50
2018-09-14T20:26:39.430Z,19.50
2018-09-14T20:29:07.957Z,19.40
2018-09-14T20:31:36.520Z,19.40
2018-09-14T20:34:05.208Z,19.30
2018-09-14T20:36:34.125Z,19.30
2018-09-14T20:39:02.700Z,19.30
2018-09-14T20:41:31.864Z,19.30
2018-09-14T20:44:00.432Z,19.30
2018-09-14T20:46:29.098Z,19.40
2018-09-14T20:48:57.625Z,19.30
2018-09-14T20:51:26.189Z,19.40
2018-09-14T20:53:54.790Z,19.40
2018-09-14T20:56:23.345Z,19.50
2018-09-14T20:58:51.907Z,19.60
2018-09-14T21:01:20.462Z,19.60
2018-09-14T21:03:51.765Z,19.60
2018-09-14T21:06:21.107Z,19.70
2018-09-14T21:08:49.630Z,19.70
2018-09-14T21:11:18.197Z,19.70
2018-09-14T21:13:46.722Z,19.70
2018-09-14T21:16:15.271Z,19.70
2018-09-14T21:18:43.812Z,19.70
2018-09-14T21:21:12.426Z,19.70
2018-09-14T21:23:40.972Z,19.70
2018-09-14T21:26:09.820Z,19.70
2018-09-14T21:28:38.704Z,19.70
2018-09-14T21:31:07.268Z,19.70
2018-09-14T21:33:35.912Z,19.60
2018-09-14T21:36:07.615Z,19.60
2018-09-14T21:38:43.442Z,19.50
2018-09-14T21:41:14.696Z,19.50
2018-09-14T21:43:45.822Z,19.50
2018-09-14T21:46:17.457Z,19.50
2018-09-14T21:48:48.778Z,19.40
2018-09-14T21:51:20.919Z,19.40
2018-09-14T21:53:52.800Z,19.40
2018-09-14T21:56:23.940Z,19.40
2018-09-14T21:58:55.378Z,19.40
2018-09-14T22:01:29.550Z,19.40
2018-09-14T22:04:01.905Z,19.40
2018-09-14T22:06:30.504Z,19.40
2018-09-14T22:08:59.073Z,19.40
2018-09-14T22:11:27.640Z,19.50
2018-09-14T22:13:56.167Z,19.50
2018-09-14T22:16:24.733Z,19.50
2018-09-14T22:18:53.263Z,19.60
2018-09-14T22:21:21.841Z,19.60
2018-09-14T22:23:50.403Z,19.70
2018-09-14T22:26:18.929Z,19.70
2018-09-14T22:28:47.497Z,19.70
2018-09-14T22:31:16.063Z,19.70
2018-09-14T22:33:44.646Z,19.70
2018-09-14T22:36:13.176Z,19.70
2018-09-14T22:38:42.088Z,19.70
2018-09-14T22:41:10.615Z,19.70
2018-09-14T22:43:39.229Z,19.70
2018-09-14T22:46:07.791Z,19.70
2018-09-14T22:48:36.345Z,19.70
2018-09-14T22:51:04.890Z,19.70
2018-09-14T22:53:33.421Z,19.70
2018-09-14T22:56:02.241Z,19.70
2018-09-14T22:58:30.776Z,19.60
2018-09-14T23:01:04.590Z,19.60
2018-09-14T23:03:33.202Z,19.60
2018-09-14T23:06:01.742Z,19.60
2018-09-14T23:08:30.417Z,19.60
2018-09-14T23:10:58.947Z,19.60
2018-09-14T23:13:27.475Z,19.60
2018-09-14T23:15:58.927Z,19.50
2018-09-14T23:18:28.495Z,19.50
2018-09-14T23:20:57.081Z,19.50
2018-09-14T23:23:25.664Z,19.50
2018-09-14T23:25:56.350Z,19.50
2018-09-14T23:28:24.887Z,19.50
2018-09-14T23:30:53.404Z,19.50
2018-09-14T23:33:21.951Z,19.50
2018-09-14T23:35:50.455Z,19.50
2018-09-14T23:38:19.007Z,19.50
2018-09-14T23:40:47.532Z,19.50
2018-09-14T23:43:16.110Z,19.50
2018-09-14T23:45:44.643Z,19.50
2018-09-14T23:48:13.187Z,19.50
2018-09-14T23:50:42.310Z,19.50
2018-09-14T23:53:10.992Z,19.50
2018-09-14T23:55:39.577Z,19.50
2018-09-14T23:58:08.119Z,19.50
